Satellite Precipitation Estimates (TXUS20 KWBC)
Issued by NWS

Home | Current Version | Previous Version | Text Only | Print | Product List | Glossary On
Versions: 1 2 3 4
769
SPTD31 TTPP 090124 RRA
SPECI
TTCP 090118Z 11008KT 9999 -RA FEW010CB SCT015 25/24 Q1014=



USA.gov is the U.S. government's official web portal to all federal, state and local government web resources and services.